Time;durP1;ratioP1;P1;durP2;ratioP2;P2;SDS_P1;SDS_P2;PMS_P1;PMS_P2;Temp;Humidity;BMP_temperature;BMP_pressure;BME280_temperature;BME280_humidity;BME280_pressure;Samples;Min_cycle;Max_cycle;Signal;HPM_P1;HPM_P2
2022/09/10 00:01:29;;;;;;;18.75;12.23;;;14.60;99.90;;;;;;4991932;28;20434;-75
2022/09/10 00:03:55;;;;;;;;;;;14.60;99.90;;;;;;4973004;28;20069;-75
2022/09/10 00:06:25;;;;;;;22.35;11.90;;;14.60;99.90;;;;;;4973847;28;19910;-75
2022/09/10 00:08:51;;;;;;;20.40;11.30;;;14.40;99.90;;;;;;4976566;28;20472;-75
2022/09/10 00:11:19;;;;;;;23.23;11.75;;;14.40;99.90;;;;;;4976425;28;20027;-75
2022/09/10 00:13:44;;;;;;;23.95;12.23;;;14.50;99.90;;;;;;4976494;28;20022;-75
2022/09/10 00:16:13;;;;;;;20.33;12.32;;;14.60;99.90;;;;;;4976241;28;20023;-75
2022/09/10 00:18:40;;;;;;;21.38;12.27;;;14.50;99.90;;;;;;4976208;28;20023;-75
2022/09/10 00:21:09;;;;;;;22.20;12.90;;;14.30;99.90;;;;;;4975019;28;20473;-75
2022/09/10 00:23:36;;;;;;;20.90;12.18;;;14.40;99.90;;;;;;4976104;28;20038;-75
2022/09/10 00:26:10;;;;;;;21.58;12.32;;;14.60;99.90;;;;;;4975942;28;20023;-75
2022/09/10 00:28:36;;;;;;;19.73;12.73;;;14.50;99.90;;;;;;4976153;28;20027;-75
2022/09/10 00:31:02;;;;;;;22.08;12.77;;;14.30;99.90;;;;;;4975844;28;20055;-75
2022/09/10 00:33:28;;;;;;;27.65;14.05;;;14.40;99.90;;;;;;5039553;23;20510;-74
2022/09/10 00:35:56;;;;;;;24.73;13.48;;;14.50;99.90;;;;;;5054503;28;20047;-75
2022/09/10 00:38:24;;;;;;;28.17;13.57;;;14.60;99.90;;;;;;5054570;28;20035;-74
2022/09/10 00:40:49;;;;;;;26.52;14.45;;;14.80;99.90;;;;;;5054846;28;20463;-74
2022/09/10 00:43:20;;;;;;;25.88;14.05;;;14.90;99.90;;;;;;5054221;28;20032;-74
2022/09/10 00:45:53;;;;;;;27.88;14.43;;;14.60;99.90;;;;;;5054353;28;20479;-75
2022/09/10 00:48:27;;;;;;;23.88;14.15;;;14.70;99.90;;;;;;5054396;28;20479;-75
2022/09/10 00:50:54;;;;;;;30.08;15.88;;;14.80;99.90;;;;;;5050823;28;20033;-75
2022/09/10 00:53:25;;;;;;;26.65;15.02;;;14.80;99.90;;;;;;5054172;28;20095;-74
2022/09/10 00:55:58;;;;;;;28.50;15.55;;;14.80;99.90;;;;;;5054092;28;20025;-75
2022/09/10 00:58:25;;;;;;;26.30;15.30;;;14.50;99.90;;;;;;5054483;28;20471;-75
2022/09/10 01:00:54;;;;;;;28.33;15.65;;;14.80;99.90;;;;;;5054027;28;20483;-74
2022/09/10 01:03:20;;;;;;;30.02;16.77;;;14.70;99.90;;;;;;5054252;28;20028;-74
2022/09/10 01:05:47;;;;;;;28.73;16.58;;;14.50;99.90;;;;;;5053929;28;20029;-75
2022/09/10 01:08:15;;;;;;;28.35;16.50;;;14.80;99.90;;;;;;5053888;28;20408;-75
2022/09/10 01:10:52;;;;;;;30.83;16.80;;;14.80;99.90;;;;;;5053800;28;20079;-74
2022/09/10 01:13:39;;;;;;;35.95;16.73;;;14.50;99.90;;;;;;5054014;28;20029;-74
2022/09/10 01:16:14;;;;;;;33.92;16.92;;;15.00;99.90;;;;;;5053763;28;20133;-74
2022/09/10 01:19:16;;;;;;;34.35;16.77;;;14.90;99.90;;;;;;5053389;28;20022;-74
2022/09/10 01:21:53;;;;;;;33.28;17.88;;;14.90;99.90;;;;;;5053670;28;20079;-75
2022/09/10 01:24:49;;;;;;;38.65;17.73;;;14.80;99.90;;;;;;5052205;28;20502;-75
2022/09/10 01:27:26;;;;;;;41.78;21.42;;;15.00;99.90;;;;;;5053378;28;20036;-74
2022/09/10 01:30:05;;;;;;;39.15;18.30;;;14.90;99.90;;;;;;5053497;28;20025;-75
2022/09/10 01:32:38;;;;;;;35.72;18.88;;;15.00;99.90;;;;;;5053226;28;20052;-74
2022/09/10 01:35:13;;;;;;;32.83;16.75;;;14.90;99.90;;;;;;5053726;28;20104;-74
2022/09/10 01:37:43;;;;;;;41.80;19.10;;;15.20;99.90;;;;;;5053654;28;20697;-75
2022/09/10 01:40:10;;;;;;;37.95;17.90;;;14.90;99.90;;;;;;5053240;28;20471;-74
2022/09/10 01:42:39;;;;;;;37.83;19.40;;;14.80;99.90;;;;;;5053387;28;20099;-74
2022/09/10 01:45:05;;;;;;;36.75;17.52;;;14.90;99.90;;;;;;5053183;28;20021;-74
2022/09/10 01:47:53;;;;;;;36.95;18.63;;;15.10;99.90;;;;;;5052976;28;20039;-73
2022/09/10 01:50:38;;;;;;;36.35;18.80;;;15.10;99.90;;;;;;5053058;28;20494;-73
2022/09/10 01:53:22;;;;;;;36.92;18.08;;;15.20;99.90;;;;;;5052743;28;20410;-73
2022/09/10 01:56:23;;;;;;;36.35;19.73;;;15.00;99.90;;;;;;5053094;28;20029;-73
2022/09/10 01:58:49;;;;;;;36.70;19.90;;;14.80;99.90;;;;;;5048213;28;20044;-73
2022/09/10 02:01:21;;;;;;;43.38;20.48;;;14.80;99.90;;;;;;5052938;28;20029;-73
2022/09/10 02:03:51;;;;;;;39.90;20.40;;;14.90;99.90;;;;;;5052658;28;20029;-73
2022/09/10 02:06:21;;;;;;;42.80;21.15;;;14.80;99.90;;;;;;5053204;28;20024;-73
2022/09/10 02:08:51;;;;;;;44.97;21.40;;;15.10;99.90;;;;;;5052778;28;20043;-73
2022/09/10 02:11:17;;;;;;;38.42;20.33;;;14.90;99.90;;;;;;5052751;28;20490;-73
2022/09/10 02:13:42;;;;;;;45.03;20.67;;;15.10;99.90;;;;;;5052463;28;20124;-73
2022/09/10 02:16:12;;;;;;;40.33;21.00;;;15.00;99.90;;;;;;5052548;28;20430;-73
2022/09/10 02:18:39;;;;;;;41.55;20.58;;;15.10;99.90;;;;;;5052415;28;20096;-73
2022/09/10 02:21:05;;;;;;;40.50;21.25;;;15.00;99.90;;;;;;5052545;28;20108;-73
2022/09/10 02:23:48;;;;;;;44.20;21.90;;;14.90;99.90;;;;;;5052421;28;20075;-73
2022/09/10 02:26:14;;;;;;;42.33;20.90;;;14.80;99.90;;;;;;5052417;28;20478;-73
2022/09/10 02:28:42;;;;;;;44.78;22.02;;;15.10;99.90;;;;;;5051939;28;20021;-73
2022/09/10 02:31:08;;;;;;;40.30;21.30;;;15.20;99.90;;;;;;5051001;28;20123;-73
2022/09/10 02:33:34;;;;;;;46.78;22.77;;;14.80;99.90;;;;;;5051959;28;20053;-73
2022/09/10 02:36:00;;;;;;;43.80;22.52;;;14.80;99.90;;;;;;5050736;28;20479;-74
2022/09/10 02:38:28;;;;;;;46.55;22.13;;;15.10;99.90;;;;;;5052251;28;20029;-73
2022/09/10 02:40:55;;;;;;;44.35;22.10;;;15.10;99.90;;;;;;5052468;28;20070;-73
2022/09/10 02:43:20;;;;;;;44.90;22.50;;;14.70;99.90;;;;;;5052362;28;20032;-73
2022/09/10 02:45:46;;;;;;;49.53;24.30;;;14.70;99.90;;;;;;5052043;28;20100;-73
2022/09/10 02:48:11;;;;;;;44.28;22.10;;;14.90;99.90;;;;;;5052043;28;20029;-73
2022/09/10 02:50:37;;;;;;;42.85;22.92;;;14.60;99.90;;;;;;5051959;28;20025;-73
2022/09/10 02:53:03;;;;;;;41.38;22.33;;;14.80;99.90;;;;;;5051735;28;20021;-73
2022/09/10 02:55:30;;;;;;;43.45;22.23;;;14.50;99.90;;;;;;5051887;28;20021;-73
2022/09/10 02:57:57;;;;;;;48.13;23.00;;;14.60;99.90;;;;;;5051759;28;20364;-73
2022/09/10 03:00:23;;;;;;;42.72;22.42;;;14.80;99.90;;;;;;5052029;28;20456;-73
2022/09/10 03:02:49;;;;;;;43.88;23.17;;;14.70;99.90;;;;;;5051821;28;20017;-73
2022/09/10 03:05:15;;;;;;;48.70;23.38;;;14.90;99.90;;;;;;5052032;28;20071;-73
2022/09/10 03:07:42;;;;;;;48.17;24.00;;;14.80;99.90;;;;;;5051684;28;20068;-73
2022/09/10 03:10:09;;;;;;;46.13;23.52;;;14.70;99.90;;;;;;5051796;28;20071;-73
2022/09/10 03:12:35;;;;;;;47.70;24.48;;;14.80;99.90;;;;;;5051734;28;20021;-73
2022/09/10 03:15:00;;;;;;;50.63;24.42;;;14.90;99.90;;;;;;5051828;28;20062;-73
2022/09/10 03:17:26;;;;;;;47.50;24.65;;;14.50;99.90;;;;;;5051579;28;20021;-73
2022/09/10 03:19:51;;;;;;;47.67;23.63;;;14.70;99.90;;;;;;5051457;28;20448;-73
2022/09/10 03:22:17;;;;;;;56.63;26.20;;;14.70;99.90;;;;;;5051662;28;20100;-73
2022/09/10 03:24:43;;;;;;;50.72;25.63;;;14.70;99.90;;;;;;5051409;28;20029;-73
2022/09/10 03:27:09;;;;;;;49.17;24.90;;;14.70;99.90;;;;;;5051313;28;20575;-73
2022/09/10 03:29:35;;;;;;;50.88;25.33;;;14.70;99.90;;;;;;5051378;28;20032;-73
2022/09/10 03:32:01;;;;;;;47.58;23.85;;;14.80;99.90;;;;;;5049851;28;20028;-74
2022/09/10 03:34:26;;;;;;;53.58;25.65;;;14.80;99.90;;;;;;5051483;28;20033;-73
2022/09/10 03:36:53;;;;;;;51.05;25.95;;;14.90;99.90;;;;;;5051256;28;20024;-73
2022/09/10 03:39:19;;;;;;;58.58;25.95;;;14.60;99.90;;;;;;5051247;28;20025;-73
2022/09/10 03:41:44;;;;;;;49.25;24.85;;;14.80;99.90;;;;;;5055193;28;20036;-73
2022/09/10 03:44:11;;;;;;;47.47;23.70;;;14.70;99.90;;;;;;5055433;28;20111;-73
2022/09/10 03:46:37;;;;;;;49.72;23.58;;;14.80;99.90;;;;;;5055349;28;20021;-73
2022/09/10 03:49:04;;;;;;;43.35;23.58;;;14.70;99.90;;;;;;5055092;28;20036;-73
2022/09/10 03:51:30;;;;;;;48.50;24.45;;;14.50;99.90;;;;;;5055372;28;20678;-73
2022/09/10 03:53:57;;;;;;;47.13;24.63;;;14.60;99.90;;;;;;5055359;28;20017;-73
2022/09/10 03:56:23;;;;;;;45.97;24.90;;;14.50;99.90;;;;;;5035509;28;20022;-73
2022/09/10 03:58:49;;;;;;;48.67;24.25;;;14.70;99.90;;;;;;5035448;28;20353;-73
2022/09/10 04:01:16;;;;;;;58.22;25.98;;;14.60;99.90;;;;;;5035152;28;20426;-74
2022/09/10 04:03:41;;;;;;;50.38;25.13;;;14.30;99.90;;;;;;5035353;28;20025;-73
2022/09/10 04:06:11;;;;;;;49.67;24.77;;;14.50;99.90;;;;;;5035232;28;20026;-73
2022/09/10 04:08:38;;;;;;;48.10;23.92;;;14.70;99.90;;;;;;5034878;28;20136;-74
2022/09/10 04:11:04;;;;;;;50.22;24.77;;;14.60;99.90;;;;;;5035486;28;20029;-73
2022/09/10 04:13:33;;;;;;;44.55;23.85;;;14.20;99.90;;;;;;5035142;28;20041;-73
2022/09/10 04:15:59;;;;;;;48.88;24.15;;;14.30;99.90;;;;;;5034743;28;20033;-73
2022/09/10 04:18:26;;;;;;;46.58;24.55;;;14.50;99.90;;;;;;5034915;28;20060;-73
2022/09/10 04:20:53;;;;;;;45.03;23.42;;;14.30;99.90;;;;;;5035153;28;20033;-73
2022/09/10 04:23:18;;;;;;;49.35;24.52;;;14.20;99.90;;;;;;5034738;28;20636;-73
2022/09/10 04:25:45;;;;;;;55.00;26.45;;;14.20;99.90;;;;;;5034725;28;20028;-73
2022/09/10 04:28:11;;;;;;;49.67;24.65;;;14.30;99.90;;;;;;5034745;28;20040;-73
2022/09/10 04:30:37;;;;;;;56.22;24.90;;;14.40;99.90;;;;;;5034797;28;20033;-73
2022/09/10 04:33:03;;;;;;;58.30;25.20;;;14.30;99.90;;;;;;5034374;28;20053;-73
2022/09/10 04:35:29;;;;;;;59.80;24.52;;;14.60;99.90;;;;;;5034573;28;20018;-73
2022/09/10 04:37:54;;;;;;;60.47;26.20;;;14.40;99.90;;;;;;5034299;28;20017;-73
2022/09/10 04:40:20;;;;;;;56.95;25.17;;;14.60;99.90;;;;;;5034771;28;20030;-73
2022/09/10 04:42:45;;;;;;;61.10;24.60;;;14.70;99.90;;;;;;5034338;28;20029;-72
2022/09/10 04:45:11;;;;;;;65.82;26.98;;;14.80;99.90;;;;;;5034365;28;20024;-73
2022/09/10 04:47:37;;;;;;;60.72;26.40;;;14.60;99.90;;;;;;5034567;28;20040;-73
2022/09/10 04:50:05;;;;;;;79.82;28.25;;;14.90;99.90;;;;;;5034495;28;20022;-73
2022/09/10 04:52:30;;;;;;;62.92;26.77;;;15.00;99.90;;;;;;5034052;28;20026;-73
2022/09/10 04:54:56;;;;;;;73.82;28.45;;;14.90;99.90;;;;;;5034120;28;20032;-73
2022/09/10 04:57:23;;;;;;;71.05;28.33;;;14.80;99.90;;;;;;5034045;28;20104;-73
2022/09/10 04:59:48;;;;;;;63.30;27.13;;;15.20;99.90;;;;;;5034359;28;20057;-73
2022/09/10 05:02:14;;;;;;;71.03;27.77;;;15.10;99.90;;;;;;5034137;28;20076;-73
2022/09/10 05:04:40;;;;;;;64.13;27.25;;;15.10;99.90;;;;;;5034217;28;20030;-73
2022/09/10 05:07:05;;;;;;;63.65;25.63;;;15.10;99.90;;;;;;5033638;28;20033;-73
2022/09/10 05:09:32;;;;;;;66.13;28.00;;;14.90;99.90;;;;;;5033790;28;20081;-73
2022/09/10 05:11:58;;;;;;;71.47;28.48;;;15.40;99.90;;;;;;5034218;28;20472;-73
2022/09/10 05:14:24;;;;;;;65.57;28.25;;;15.40;99.90;;;;;;5033943;28;20097;-73
2022/09/10 05:16:49;;;;;;;64.30;27.60;;;15.00;99.90;;;;;;5034113;28;20112;-73
2022/09/10 05:19:16;;;;;;;63.58;27.17;;;15.20;99.90;;;;;;5033954;28;20124;-73
2022/09/10 05:21:47;;;;;;;59.97;26.17;;;15.30;99.90;;;;;;5033966;28;20036;-73
2022/09/10 05:24:13;;;;;;;55.15;26.42;;;15.20;99.90;;;;;;5034043;28;20080;-73
2022/09/10 05:26:39;;;;;;;58.03;25.48;;;15.30;99.90;;;;;;5033678;28;20022;-73
2022/09/10 05:29:05;;;;;;;61.67;26.48;;;15.30;99.90;;;;;;5033445;28;20415;-73
2022/09/10 05:31:32;;;;;;;56.72;25.58;;;15.10;99.90;;;;;;5033760;28;20040;-73
2022/09/10 05:34:00;;;;;;;55.50;25.27;;;15.20;99.90;;;;;;5033153;28;20145;-73
2022/09/10 05:36:26;;;;;;;56.38;24.85;;;15.50;99.90;;;;;;5049044;28;20025;-73
2022/09/10 05:38:53;;;;;;;54.95;25.13;;;15.10;99.90;;;;;;5053076;28;20169;-73
2022/09/10 05:41:19;;;;;;;56.80;24.58;;;15.20;99.90;;;;;;5033871;28;20101;-73
2022/09/10 05:43:45;;;;;;;56.22;25.63;;;15.30;99.90;;;;;;5033404;28;20105;-72
2022/09/10 05:46:11;;;;;;;52.00;24.73;;;15.30;99.90;;;;;;5033329;28;20048;-72
2022/09/10 05:48:36;;;;;;;57.47;25.13;;;15.20;99.90;;;;;;5033376;28;20025;-73
2022/09/10 05:51:02;;;;;;;45.10;24.08;;;15.50;99.90;;;;;;5033119;28;20033;-72
2022/09/10 05:53:28;;;;;;;49.72;24.27;;;15.60;99.90;;;;;;5032927;28;20021;-72
2022/09/10 05:55:53;;;;;;;49.85;24.13;;;15.70;99.90;;;;;;5032698;28;20104;-72
2022/09/10 05:58:19;;;;;;;56.50;24.60;;;15.80;99.90;;;;;;5031596;28;20068;-72
2022/09/10 06:00:48;;;;;;;50.53;24.83;;;15.90;99.90;;;;;;5031690;28;20025;-73
2022/09/10 06:03:14;;;;;;;50.25;24.73;;;15.70;99.90;;;;;;5032440;28;20044;-72
2022/09/10 06:05:39;;;;;;;47.90;24.63;;;15.50;99.90;;;;;;5032513;28;20098;-72
2022/09/10 06:08:05;;;;;;;48.60;23.08;;;15.40;99.90;;;;;;5032691;28;20092;-72
2022/09/10 06:10:31;;;;;;;43.80;22.25;;;15.70;99.90;;;;;;5032562;28;20029;-73
2022/09/10 06:12:57;;;;;;;47.45;23.83;;;15.70;99.90;;;;;;5032827;28;20014;-73
2022/09/10 06:15:22;;;;;;;43.42;23.75;;;15.50;99.90;;;;;;5032714;28;20022;-72
2022/09/10 06:17:48;;;;;;;42.72;21.25;;;15.60;99.90;;;;;;5032632;28;20104;-72
2022/09/10 06:20:14;;;;;;;44.15;22.92;;;15.80;99.90;;;;;;5032653;28;20083;-73
2022/09/10 06:22:40;;;;;;;45.35;21.75;;;15.90;99.90;;;;;;5032673;28;20049;-72
2022/09/10 06:25:05;;;;;;;42.33;23.60;;;16.00;99.90;;;;;;5032583;28;20366;-72
2022/09/10 06:27:32;;;;;;;45.08;22.48;;;15.60;99.90;;;;;;5032396;28;20025;-72
2022/09/10 06:29:57;;;;;;;40.90;23.85;;;16.10;99.90;;;;;;5032337;28;20032;-72
2022/09/10 06:32:23;;;;;;;40.17;21.50;;;15.70;99.90;;;;;;5032067;28;20049;-72
2022/09/10 06:34:49;;;;;;;42.20;23.15;;;16.30;99.90;;;;;;5032334;28;20030;-72
2022/09/10 06:37:15;;;;;;;39.97;22.23;;;15.80;99.90;;;;;;5032394;28;20107;-73
2022/09/10 06:39:41;;;;;;;41.50;22.92;;;16.10;99.90;;;;;;5032251;28;20183;-73
2022/09/10 06:42:06;;;;;;;45.55;23.27;;;15.90;99.90;;;;;;5032351;28;20105;-73
2022/09/10 06:44:32;;;;;;;44.30;23.60;;;16.10;99.90;;;;;;5031978;28;20071;-72
2022/09/10 06:46:57;;;;;;;38.55;21.83;;;16.30;99.90;;;;;;5032111;28;20082;-72
2022/09/10 06:49:23;;;;;;;43.65;22.05;;;16.10;99.90;;;;;;5031974;28;20030;-72
2022/09/10 06:51:50;;;;;;;43.33;21.95;;;16.40;99.90;;;;;;5032483;28;20026;-72
2022/09/10 06:54:17;;;;;;;33.47;19.63;;;16.00;99.90;;;;;;5032486;28;20108;-72
2022/09/10 06:56:45;;;;;;;35.20;20.55;;;16.10;99.90;;;;;;5032512;28;20025;-73
2022/09/10 06:59:13;;;;;;;34.30;20.42;;;16.50;99.90;;;;;;5034878;28;21571;-73
2022/09/10 07:01:39;;;;;;;38.83;21.00;;;16.40;99.90;;;;;;5051977;28;20040;-73
2022/09/10 07:04:05;;;;;;;35.25;19.77;;;16.40;99.90;;;;;;5051531;28;20027;-73
2022/09/10 07:06:33;;;;;;;32.85;18.73;;;16.20;99.90;;;;;;5051760;28;20044;-73
2022/09/10 07:08:59;;;;;;;35.03;21.05;;;16.40;99.90;;;;;;5051395;28;20027;-73
2022/09/10 07:11:27;;;;;;;30.05;18.45;;;16.50;99.90;;;;;;5051362;28;20732;-73
2022/09/10 07:13:53;;;;;;;34.72;19.00;;;16.30;99.90;;;;;;5051644;28;20479;-73
2022/09/10 07:16:20;;;;;;;36.13;21.23;;;16.70;99.90;;;;;;5051166;28;20092;-72
2022/09/10 07:18:55;;;;;;;25.85;17.50;;;16.30;99.90;;;;;;5048885;28;20086;-72
2022/09/10 07:21:23;;;;;;;30.98;18.77;;;16.50;99.90;;;;;;5031345;28;20025;-73
2022/09/10 07:23:53;;;;;;;37.10;19.58;;;16.30;99.90;;;;;;5031570;28;20048;-74
2022/09/10 07:26:19;;;;;;;34.72;19.58;;;16.80;99.90;;;;;;5031074;28;20018;-73
2022/09/10 07:28:45;;;;;;;33.90;19.83;;;16.50;99.90;;;;;;5031119;28;20079;-72
2022/09/10 07:31:22;;;;;;;25.95;16.40;;;16.60;99.90;;;;;;5031105;28;20510;-73
2022/09/10 07:33:49;;;;;;;30.70;17.60;;;16.80;99.90;;;;;;5045452;28;20053;-73
2022/09/10 07:36:16;;;;;;;29.77;19.80;;;17.20;99.90;;;;;;5050862;28;20032;-73
2022/09/10 07:38:42;;;;;;;27.33;17.17;;;17.00;99.90;;;;;;5051260;28;20489;-73
2022/09/10 07:41:10;;;;;;;32.05;19.55;;;17.20;99.90;;;;;;5051066;28;20056;-73
2022/09/10 07:43:40;;;;;;;24.77;15.93;;;17.50;99.90;;;;;;5051462;28;20024;-73
2022/09/10 07:46:07;;;;;;;28.60;17.33;;;17.90;99.90;;;;;;5051118;28;20101;-73
2022/09/10 07:48:33;;;;;;;23.23;15.63;;;18.80;99.90;;;;;;5051242;28;20523;-73
2022/09/10 07:51:03;;;;;;;29.95;18.40;;;19.00;99.90;;;;;;5050966;28;20021;-73
2022/09/10 07:53:28;;;;;;;;;;;19.80;99.90;;;;;;5034045;28;20022;-72
2022/09/10 07:56:02;;;;;;;27.23;16.27;;;18.90;99.90;;;;;;5031329;28;19909;-73
2022/09/10 07:58:30;;;;;;;23.65;15.98;;;20.10;99.90;;;;;;5031225;28;20036;-73
2022/09/10 08:00:58;;;;;;;21.48;14.95;;;21.30;99.90;;;;;;5031202;28;20017;-73
2022/09/10 08:03:25;;;;;;;21.40;14.15;;;21.30;99.90;;;;;;5050590;28;20029;-72
2022/09/10 08:05:51;;;;;;;23.02;14.48;;;22.40;99.90;;;;;;5050614;28;20087;-72
2022/09/10 08:08:16;;;;;;;19.48;12.43;;;24.00;99.90;;;;;;5050945;28;20029;-73
2022/09/10 08:10:42;;;;;;;19.75;13.38;;;25.70;99.90;;;;;;5050595;28;20021;-73
2022/09/10 08:13:08;;;;;;;16.13;12.23;;;25.00;99.90;;;;;;5051078;28;20028;-73
2022/09/10 08:15:34;;;;;;;14.40;11.60;;;24.00;99.90;;;;;;5050725;28;20056;-74
2022/09/10 08:18:01;;;;;;;15.93;11.95;;;22.40;99.90;;;;;;5051082;28;20053;-73
2022/09/10 08:20:26;;;;;;;16.27;10.52;;;21.70;92.60;;;;;;5051336;28;20013;-73
2022/09/10 08:22:52;;;;;;;16.23;11.43;;;21.70;99.90;;;;;;5050451;28;20032;-73
2022/09/10 08:25:20;;;;;;;14.63;11.50;;;21.40;1.00;;;;;;5051264;28;20078;-72
2022/09/10 08:27:46;;;;;;;15.05;11.93;;;21.80;1.00;;;;;;5052772;28;20025;-72
2022/09/10 08:30:13;;;;;;;17.20;11.15;;;21.70;1.00;;;;;;5054281;28;20029;-72
2022/09/10 08:32:39;;;;;;;17.33;11.80;;;21.10;19.40;;;;;;5054411;28;20060;-72
2022/09/10 08:35:05;;;;;;;13.18;10.10;;;22.00;1.00;;;;;;5054501;28;20108;-72
2022/09/10 08:37:32;;;;;;;12.70;9.25;;;23.40;99.90;;;;;;5054509;28;20116;-72
2022/09/10 08:39:58;;;;;;;10.35;8.02;;;21.20;1.00;;;;;;5036532;28;20483;-72
2022/09/10 08:42:34;;;;;;;9.55;7.63;;;21.10;99.90;;;;;;5054303;28;20021;-72
2022/09/10 08:45:14;;;;;;;12.38;8.95;;;21.70;99.90;;;;;;5054073;28;20029;-73
2022/09/10 08:48:01;;;;;;;11.95;9.00;;;21.40;99.90;;;;;;5054475;28;20025;-75
2022/09/10 08:50:32;;;;;;;9.18;7.32;;;21.90;99.90;;;;;;5054595;28;20410;-75
2022/09/10 08:53:26;;;;;;;10.57;7.50;;;20.90;99.90;;;;;;5054445;28;20021;-75
2022/09/10 08:55:56;;;;;;;8.30;6.60;;;21.30;99.90;;;;;;5054046;28;20372;-75
2022/09/10 08:58:39;;;;;;;9.75;7.50;;;21.00;99.90;;;;;;5053099;28;20025;-75
2022/09/10 09:01:10;;;;;;;11.52;8.20;;;21.30;99.90;;;;;;5054107;28;20020;-75
2022/09/10 09:03:41;;;;;;;10.73;8.60;;;22.00;99.90;;;;;;5054268;28;20025;-75
2022/09/10 09:06:29;;;;;;;13.00;8.63;;;21.70;99.90;;;;;;5053999;28;20398;-75
2022/09/10 09:08:56;;;;;;;12.32;9.10;;;21.30;99.90;;;;;;5054160;28;20025;-75
2022/09/10 09:11:46;;;;;;;11.15;8.23;;;21.30;99.90;;;;;;5054171;28;20055;-75
2022/09/10 09:14:12;;;;;;;13.57;10.55;;;20.90;99.90;;;;;;5053974;28;20570;-75
2022/09/10 09:16:48;;;;;;;13.75;10.88;;;20.60;99.90;;;;;;5054076;28;20052;-75
2022/09/10 09:19:29;;;;;;;14.85;10.48;;;20.50;1.00;;;;;;5034209;28;20044;-75
2022/09/10 09:21:58;;;;;;;19.88;11.10;;;20.10;1.00;;;;;;5033990;28;20067;-75
2022/09/10 09:24:40;;;;;;;13.60;9.40;;;19.60;1.00;;;;;;5033914;28;20029;-75
2022/09/10 09:27:14;;;;;;;14.32;10.77;;;19.40;1.00;;;;;;5033965;28;20388;-76
2022/09/10 09:29:55;;;;;;;19.23;12.27;;;19.20;1.00;;;;;;5033730;28;20068;-76
2022/09/10 09:32:22;;;;;;;15.40;11.77;;;19.20;30.00;;;;;;5033251;28;20054;-76
2022/09/10 09:34:49;;;;;;;17.10;11.15;;;19.60;1.00;;;;;;5033788;28;20373;-76
2022/09/10 09:37:21;;;;;;;15.93;11.45;;;19.70;1.00;;;;;;5033817;28;20022;-76
2022/09/10 09:40:00;;;;;;;14.52;10.63;;;19.60;1.00;;;;;;5033178;28;20025;-76
2022/09/10 09:42:36;;;;;;;15.38;11.85;;;19.90;1.00;;;;;;5034024;28;20402;-76
2022/09/10 09:45:30;;;;;;;13.05;9.98;;;20.30;1.00;;;;;;5033556;28;20021;-76
2022/09/10 09:47:57;;;;;;;14.05;10.80;;;20.20;1.00;;;;;;5033392;28;20383;-76
2022/09/10 09:50:22;;;;;;;14.80;10.85;;;19.80;1.00;;;;;;5033472;28;20033;-76
2022/09/10 09:52:55;;;;;;;13.63;9.50;;;20.00;1.00;;;;;;5033475;28;20029;-76
2022/09/10 09:55:28;;;;;;;15.23;10.65;;;20.50;1.00;;;;;;5033273;28;20055;-76
2022/09/10 09:58:22;;;;;;;14.57;10.35;;;20.30;1.00;;;;;;5033311;28;20560;-75
2022/09/10 10:00:54;;;;;;;12.40;9.48;;;20.50;99.90;;;;;;5033549;28;20024;-76
2022/09/10 10:03:25;;;;;;;18.20;10.32;;;20.60;99.90;;;;;;5033024;28;20021;-76
2022/09/10 10:06:04;;;;;;;15.07;9.77;;;20.80;99.90;;;;;;5032941;28;20071;-75
2022/09/10 10:08:42;;;;;;;13.25;9.27;;;20.60;99.90;;;;;;5032640;28;20076;-75
2022/09/10 10:11:11;;;;;;;16.73;10.93;;;20.30;99.90;;;;;;5032776;28;20507;-75
2022/09/10 10:13:42;;;;;;;14.80;10.95;;;20.00;1.00;;;;;;5032261;28;20022;-76
2022/09/10 10:16:19;;;;;;;13.52;9.90;;;20.30;1.00;;;;;;5032856;28;20049;-77
2022/09/10 10:18:45;;;;;;;11.88;8.10;;;21.00;99.90;;;;;;5032951;28;20445;-77
2022/09/10 10:21:15;;;;;;;15.90;10.63;;;21.20;99.90;;;;;;5032926;28;20017;-77
2022/09/10 10:23:48;;;;;;;14.93;10.55;;;21.40;99.90;;;;;;5033221;28;20075;-77
2022/09/10 10:26:19;;;;;;;14.57;9.60;;;21.10;99.90;;;;;;5032789;28;20506;-77
2022/09/10 10:28:46;;;;;;;14.60;10.82;;;21.40;99.90;;;;;;5032101;28;20528;-76
2022/09/10 10:31:13;;;;;;;13.55;10.80;;;21.80;99.90;;;;;;5032251;28;20113;-76
2022/09/10 10:34:03;;;;;;;18.33;11.23;;;21.10;99.90;;;;;;5032002;28;20073;-76
2022/09/10 10:36:52;;;;;;;17.08;12.75;;;21.40;99.90;;;;;;5032165;28;20083;-76
2022/09/10 10:39:44;;;;;;;15.15;10.55;;;21.80;99.90;;;;;;5032667;28;20037;-76
2022/09/10 10:42:15;;;;;;;15.45;11.77;;;21.40;99.90;;;;;;5031438;28;20042;-76
2022/09/10 10:45:09;;;;;;;18.30;13.52;;;21.40;99.90;;;;;;5032607;28;20548;-76
2022/09/10 10:47:44;;;;;;;18.90;11.43;;;21.40;99.90;;;;;;5032576;28;20128;-76
2022/09/10 10:50:18;;;;;;;16.42;10.95;;;22.10;99.90;;;;;;5032044;28;20472;-76
2022/09/10 10:53:07;;;;;;;16.35;12.30;;;22.10;99.90;;;;;;5032550;28;20091;-76
2022/09/10 10:55:54;;;;;;;13.20;9.90;;;21.80;99.90;;;;;;5032319;28;20022;-76
2022/09/10 10:58:34;;;;;;;15.80;10.10;;;21.80;99.90;;;;;;5034611;28;20056;-76
2022/09/10 11:01:22;;;;;;;16.02;11.85;;;22.00;99.90;;;;;;5032246;28;20105;-76
2022/09/10 11:04:07;;;;;;;15.23;11.38;;;22.90;99.90;;;;;;5046040;28;20467;-76
2022/09/10 11:06:39;;;;;;;14.60;8.90;;;23.10;99.90;;;;;;5051689;28;20662;-76
2022/09/10 11:09:37;;;;;;;14.38;8.60;;;23.00;99.90;;;;;;5051847;28;20104;-76
2022/09/10 11:12:15;;;;;;;13.63;9.95;;;23.20;99.90;;;;;;5051317;28;20548;-76
2022/09/10 11:14:52;;;;;;;14.45;9.80;;;22.70;99.90;;;;;;5051330;28;20013;-76
2022/09/10 11:17:38;;;;;;;16.35;9.88;;;23.40;99.90;;;;;;5051867;28;20020;-76
2022/09/10 11:20:17;;;;;;;13.32;9.98;;;23.10;99.90;;;;;;5051055;28;20036;-76
2022/09/10 11:22:50;;;;;;;12.00;9.15;;;23.70;99.90;;;;;;5051674;28;20070;-76
2022/09/10 11:25:31;;;;;;;11.27;8.95;;;23.60;99.90;;;;;;5051323;28;20025;-76
2022/09/10 11:28:14;;;;;;;14.95;10.20;;;22.90;97.00;;;;;;5051017;28;20450;-77
2022/09/10 11:30:43;;;;;;;14.82;10.60;;;22.70;99.90;;;;;;5052817;28;20023;-78
2022/09/10 11:33:23;;;;;;;14.57;11.05;;;22.60;99.90;;;;;;5051828;28;20059;-77
2022/09/10 11:36:00;;;;;;;13.25;10.32;;;22.80;99.90;;;;;;5052369;28;20025;-77
2022/09/10 11:38:42;;;;;;;15.35;10.68;;;23.40;97.40;;;;;;5052267;28;20057;-77
2022/09/10 11:41:17;;;;;;;14.75;11.63;;;24.20;97.50;;;;;;5052215;28;20022;-77
2022/09/10 11:44:11;;;;;;;15.73;11.52;;;24.00;58.60;;;;;;5052396;28;20032;-77
2022/09/10 11:46:53;;;;;;;16.48;11.50;;;23.90;85.60;;;;;;5052629;28;20027;-77
2022/09/10 11:49:32;;;;;;;15.93;10.65;;;24.30;69.50;;;;;;5052513;28;20025;-78
2022/09/10 11:51:57;;;;;;;14.90;10.98;;;23.90;41.70;;;;;;5052486;28;20053;-78
2022/09/10 11:54:30;;;;;;;15.80;10.48;;;23.60;56.30;;;;;;5052190;28;20060;-77
2022/09/10 11:57:14;;;;;;;14.20;10.43;;;23.60;12.70;;;;;;5052151;28;20503;-78
2022/09/10 12:00:10;;;;;;;12.77;9.02;;;23.70;21.70;;;;;;5051398;28;20093;-76
2022/09/10 12:02:45;;;;;;;15.65;9.60;;;24.40;24.20;;;;;;5053391;28;20021;-77
2022/09/10 12:05:22;;;;;;;12.48;9.65;;;24.30;1.00;;;;;;5055423;28;20099;-77
2022/09/10 12:08:16;;;;;;;15.45;11.25;;;24.40;1.00;;;;;;5055677;28;20029;-77
2022/09/10 12:11:19;;;;;;;16.98;11.23;;;23.30;31.90;;;;;;5055310;28;20142;-77
2022/09/10 12:13:48;;;;;;;14.05;10.57;;;23.00;98.70;;;;;;5055190;28;20035;-77
2022/09/10 12:16:25;;;;;;;14.55;11.80;;;23.00;45.50;;;;;;5055464;28;20032;-77
2022/09/10 12:18:55;;;;;;;16.40;11.75;;;22.50;99.90;;;;;;5056373;28;20024;-78
2022/09/10 12:21:33;;;;;;;13.48;11.07;;;22.80;99.90;;;;;;5056408;28;20095;-78
2022/09/10 12:24:24;;;;;;;14.55;10.88;;;23.40;78.90;;;;;;5056777;28;20021;-78
2022/09/10 12:26:51;;;;;;;15.88;10.55;;;23.30;41.50;;;;;;5056517;28;20020;-78
2022/09/10 12:29:39;;;;;;;18.45;12.07;;;23.00;84.90;;;;;;5056041;28;20027;-78
2022/09/10 12:32:08;;;;;;;17.33;11.63;;;23.00;36.50;;;;;;5035897;28;20029;-78
2022/09/10 12:34:38;;;;;;;16.20;10.73;;;23.20;40.10;;;;;;5034844;28;20388;-78
2022/09/10 12:37:04;;;;;;;14.50;9.95;;;23.40;16.50;;;;;;5036317;28;20056;-78
2022/09/10 12:39:30;;;;;;;13.30;9.20;;;22.60;65.90;;;;;;5036199;28;20114;-78
2022/09/10 12:41:58;;;;;;;13.82;9.77;;;22.80;26.90;;;;;;5036375;28;20032;-78
2022/09/10 12:44:33;;;;;;;11.50;8.82;;;23.10;7.90;;;;;;5036264;28;20140;-78
2022/09/10 12:47:17;;;;;;;12.10;7.55;;;23.00;30.10;;;;;;5036571;28;20583;-78
2022/09/10 12:49:56;;;;;;;14.10;8.50;;;23.70;15.10;;;;;;5036607;28;20419;-78